sensor_id;sensor_type;location;lat;lon;timestamp;P1;durP1;ratioP1;P2;durP2;ratioP2
46701;SDS011;33449;50.712;7.124;2023-01-24T00:01:30;21.67;;;11.68;;
46701;SDS011;33449;50.712;7.124;2023-01-24T00:03:57;20.77;;;10.88;;
46701;SDS011;33449;50.712;7.124;2023-01-24T00:09:05;19.52;;;10.85;;
46701;SDS011;33449;50.712;7.124;2023-01-24T00:11:32;17.52;;;10.00;;
46701;SDS011;33449;50.712;7.124;2023-01-24T00:14:02;16.95;;;9.77;;
46701;SDS011;33449;50.712;7.124;2023-01-24T00:16:29;17.98;;;10.57;;
46701;SDS011;33449;50.712;7.124;2023-01-24T00:18:56;14.80;;;8.88;;
46701;SDS011;33449;50.712;7.124;2023-01-24T00:24:02;15.82;;;9.73;;
46701;SDS011;33449;50.712;7.124;2023-01-24T00:26:30;15.70;;;9.57;;
46701;SDS011;33449;50.712;7.124;2023-01-24T00:28:57;14.68;;;8.50;;
46701;SDS011;33449;50.712;7.124;2023-01-24T00:31:24;14.45;;;9.07;;
46701;SDS011;33449;50.712;7.124;2023-01-24T00:33:52;15.85;;;9.40;;
46701;SDS011;33449;50.712;7.124;2023-01-24T00:38:59;16.65;;;8.85;;
46701;SDS011;33449;50.712;7.124;2023-01-24T00:41:26;12.98;;;7.32;;
46701;SDS011;33449;50.712;7.124;2023-01-24T00:43:53;13.70;;;8.75;;
46701;SDS011;33449;50.712;7.124;2023-01-24T00:46:20;13.50;;;7.15;;
46701;SDS011;33449;50.712;7.124;2023-01-24T00:48:47;13.73;;;7.70;;
46701;SDS011;33449;50.712;7.124;2023-01-24T00:54:06;14.85;;;7.57;;
46701;SDS011;33449;50.712;7.124;2023-01-24T00:56:33;12.75;;;7.90;;
46701;SDS011;33449;50.712;7.124;2023-01-24T00:59:00;12.48;;;6.97;;
46701;SDS011;33449;50.712;7.124;2023-01-24T01:01:27;13.80;;;7.65;;
46701;SDS011;33449;50.712;7.124;2023-01-24T01:03:54;13.18;;;8.43;;
46701;SDS011;33449;50.712;7.124;2023-01-24T01:08:56;11.65;;;6.57;;
46701;SDS011;33449;50.712;7.124;2023-01-24T01:11:23;11.10;;;6.75;;
46701;SDS011;33449;50.712;7.124;2023-01-24T01:13:53;12.10;;;7.20;;
46701;SDS011;33449;50.712;7.124;2023-01-24T01:16:20;14.10;;;7.43;;
46701;SDS011;33449;50.712;7.124;2023-01-24T01:18:47;11.30;;;7.65;;
46701;SDS011;33449;50.712;7.124;2023-01-24T01:26:22;13.93;;;7.25;;
46701;SDS011;33449;50.712;7.124;2023-01-24T01:28:50;12.80;;;7.43;;
46701;SDS011;33449;50.712;7.124;2023-01-24T01:31:17;13.30;;;7.10;;
46701;SDS011;33449;50.712;7.124;2023-01-24T01:33:44;12.50;;;7.65;;
46701;SDS011;33449;50.712;7.124;2023-01-24T01:36:11;12.35;;;7.40;;
46701;SDS011;33449;50.712;7.124;2023-01-24T01:38:38;11.95;;;7.30;;
46701;SDS011;33449;50.712;7.124;2023-01-24T01:41:05;12.07;;;7.65;;
46701;SDS011;33449;50.712;7.124;2023-01-24T01:43:32;11.32;;;6.47;;
46701;SDS011;33449;50.712;7.124;2023-01-24T01:46:16;13.07;;;7.30;;
46701;SDS011;33449;50.712;7.124;2023-01-24T01:48:48;13.50;;;6.70;;
46701;SDS011;33449;50.712;7.124;2023-01-24T01:51:22;12.18;;;6.88;;
46701;SDS011;33449;50.712;7.124;2023-01-24T01:53:51;8.00;;;5.82;;
46701;SDS011;33449;50.712;7.124;2023-01-24T01:56:21;12.57;;;6.80;;
46701;SDS011;33449;50.712;7.124;2023-01-24T01:58:50;9.13;;;5.53;;
46701;SDS011;33449;50.712;7.124;2023-01-24T02:01:18;9.35;;;5.22;;
46701;SDS011;33449;50.712;7.124;2023-01-24T02:03:53;10.05;;;5.85;;
46701;SDS011;33449;50.712;7.124;2023-01-24T02:06:34;9.25;;;5.60;;
46701;SDS011;33449;50.712;7.124;2023-01-24T02:11:37;9.82;;;6.38;;
46701;SDS011;33449;50.712;7.124;2023-01-24T02:14:06;10.65;;;6.43;;
46701;SDS011;33449;50.712;7.124;2023-01-24T02:16:52;10.45;;;6.55;;
46701;SDS011;33449;50.712;7.124;2023-01-24T02:19:28;13.68;;;6.47;;
46701;SDS011;33449;50.712;7.124;2023-01-24T02:22:04;13.00;;;7.20;;
46701;SDS011;33449;50.712;7.124;2023-01-24T02:24:36;12.93;;;7.72;;
46701;SDS011;33449;50.712;7.124;2023-01-24T02:29:40;10.60;;;6.07;;
46701;SDS011;33449;50.712;7.124;2023-01-24T02:32:07;12.23;;;6.65;;
46701;SDS011;33449;50.712;7.124;2023-01-24T02:34:34;11.18;;;6.30;;
46701;SDS011;33449;50.712;7.124;2023-01-24T02:37:06;10.57;;;6.57;;
46701;SDS011;33449;50.712;7.124;2023-01-24T02:39:50;11.85;;;5.90;;
46701;SDS011;33449;50.712;7.124;2023-01-24T02:42:21;10.95;;;6.15;;
46701;SDS011;33449;50.712;7.124;2023-01-24T02:47:32;9.77;;;6.20;;
46701;SDS011;33449;50.712;7.124;2023-01-24T02:50:01;10.95;;;5.75;;
46701;SDS011;33449;50.712;7.124;2023-01-24T02:52:28;15.65;;;7.32;;
46701;SDS011;33449;50.712;7.124;2023-01-24T02:55:14;11.73;;;6.82;;
46701;SDS011;33449;50.712;7.124;2023-01-24T02:57:41;9.70;;;6.07;;
46701;SDS011;33449;50.712;7.124;2023-01-24T03:00:26;11.00;;;5.90;;
46701;SDS011;33449;50.712;7.124;2023-01-24T03:05:27;11.38;;;5.40;;
46701;SDS011;33449;50.712;7.124;2023-01-24T03:08:06;10.13;;;5.57;;
46701;SDS011;33449;50.712;7.124;2023-01-24T03:10:33;12.32;;;6.10;;
46701;SDS011;33449;50.712;7.124;2023-01-24T03:13:01;9.80;;;5.70;;
46701;SDS011;33449;50.712;7.124;2023-01-24T03:15:48;8.90;;;5.60;;
46701;SDS011;33449;50.712;7.124;2023-01-24T03:18:34;10.70;;;5.90;;
46701;SDS011;33449;50.712;7.124;2023-01-24T03:21:20;12.65;;;6.68;;
46701;SDS011;33449;50.712;7.124;2023-01-24T03:24:07;10.73;;;4.97;;
46701;SDS011;33449;50.712;7.124;2023-01-24T03:29:24;9.15;;;5.43;;
46701;SDS011;33449;50.712;7.124;2023-01-24T03:32:25;9.25;;;5.22;;
46701;SDS011;33449;50.712;7.124;2023-01-24T03:35:27;10.27;;;5.38;;
46701;SDS011;33449;50.712;7.124;2023-01-24T03:37:54;11.15;;;6.28;;
46701;SDS011;33449;50.712;7.124;2023-01-24T03:40:40;10.00;;;5.88;;
46701;SDS011;33449;50.712;7.124;2023-01-24T03:45:42;13.00;;;5.40;;
46701;SDS011;33449;50.712;7.124;2023-01-24T03:48:09;9.07;;;5.20;;
46701;SDS011;33449;50.712;7.124;2023-01-24T03:53:28;9.65;;;5.65;;
46701;SDS011;33449;50.712;7.124;2023-01-24T03:55:56;10.23;;;5.80;;
46701;SDS011;33449;50.712;7.124;2023-01-24T03:58:26;10.55;;;5.60;;
46701;SDS011;33449;50.712;7.124;2023-01-24T04:00:53;13.02;;;5.72;;
46701;SDS011;33449;50.712;7.124;2023-01-24T04:03:20;10.02;;;5.50;;
46701;SDS011;33449;50.712;7.124;2023-01-24T04:08:16;12.40;;;5.97;;
46701;SDS011;33449;50.712;7.124;2023-01-24T04:10:43;10.68;;;6.20;;
46701;SDS011;33449;50.712;7.124;2023-01-24T04:13:11;10.02;;;6.15;;
46701;SDS011;33449;50.712;7.124;2023-01-24T04:15:38;9.90;;;6.15;;
46701;SDS011;33449;50.712;7.124;2023-01-24T04:18:08;9.75;;;6.07;;
46701;SDS011;33449;50.712;7.124;2023-01-24T04:23:14;10.23;;;5.57;;
46701;SDS011;33449;50.712;7.124;2023-01-24T04:25:41;9.77;;;5.72;;
46701;SDS011;33449;50.712;7.124;2023-01-24T04:28:08;10.95;;;6.30;;
46701;SDS011;33449;50.712;7.124;2023-01-24T04:30:35;9.75;;;6.32;;
46701;SDS011;33449;50.712;7.124;2023-01-24T04:33:02;12.07;;;7.15;;
46701;SDS011;33449;50.712;7.124;2023-01-24T04:38:13;9.43;;;6.20;;
46701;SDS011;33449;50.712;7.124;2023-01-24T04:40:40;11.80;;;6.45;;
46701;SDS011;33449;50.712;7.124;2023-01-24T04:43:07;12.55;;;6.07;;
46701;SDS011;33449;50.712;7.124;2023-01-24T04:45:35;10.68;;;6.72;;
46701;SDS011;33449;50.712;7.124;2023-01-24T04:48:02;11.57;;;6.50;;
46701;SDS011;33449;50.712;7.124;2023-01-24T04:56:04;14.32;;;6.95;;
46701;SDS011;33449;50.712;7.124;2023-01-24T04:58:31;13.45;;;7.80;;
46701;SDS011;33449;50.712;7.124;2023-01-24T05:00:59;9.35;;;5.93;;
46701;SDS011;33449;50.712;7.124;2023-01-24T05:03:28;12.57;;;6.90;;
46701;SDS011;33449;50.712;7.124;2023-01-24T05:05:56;12.60;;;6.88;;
46701;SDS011;33449;50.712;7.124;2023-01-24T05:11:09;13.18;;;7.45;;
46701;SDS011;33449;50.712;7.124;2023-01-24T05:13:37;12.73;;;6.72;;
46701;SDS011;33449;50.712;7.124;2023-01-24T05:16:04;12.35;;;7.43;;
46701;SDS011;33449;50.712;7.124;2023-01-24T05:18:32;11.75;;;6.68;;
46701;SDS011;33449;50.712;7.124;2023-01-24T05:21:10;10.38;;;6.82;;
46701;SDS011;33449;50.712;7.124;2023-01-24T05:26:05;8.40;;;5.47;;
46701;SDS011;33449;50.712;7.124;2023-01-24T05:28:32;9.55;;;5.65;;
46701;SDS011;33449;50.712;7.124;2023-01-24T05:31:02;8.65;;;5.25;;
46701;SDS011;33449;50.712;7.124;2023-01-24T05:33:30;10.52;;;6.45;;
46701;SDS011;33449;50.712;7.124;2023-01-24T05:35:58;12.93;;;7.03;;
46701;SDS011;33449;50.712;7.124;2023-01-24T05:40:53;11.48;;;6.00;;
46701;SDS011;33449;50.712;7.124;2023-01-24T05:43:20;13.95;;;7.85;;
46701;SDS011;33449;50.712;7.124;2023-01-24T05:45:47;10.32;;;6.82;;
46701;SDS011;33449;50.712;7.124;2023-01-24T05:48:14;10.13;;;6.60;;
46701;SDS011;33449;50.712;7.124;2023-01-24T05:50:41;12.90;;;6.45;;
46701;SDS011;33449;50.712;7.124;2023-01-24T05:56:02;13.73;;;7.32;;
46701;SDS011;33449;50.712;7.124;2023-01-24T05:58:29;11.57;;;7.47;;
46701;SDS011;33449;50.712;7.124;2023-01-24T06:00:57;10.75;;;6.40;;
46701;SDS011;33449;50.712;7.124;2023-01-24T06:03:24;8.95;;;4.85;;
46701;SDS011;33449;50.712;7.124;2023-01-24T06:05:52;10.90;;;6.63;;
46701;SDS011;33449;50.712;7.124;2023-01-24T06:08:19;14.07;;;7.22;;
46701;SDS011;33449;50.712;7.124;2023-01-24T06:10:47;14.00;;;7.00;;
46701;SDS011;33449;50.712;7.124;2023-01-24T06:13:14;9.35;;;6.38;;
46701;SDS011;33449;50.712;7.124;2023-01-24T06:15:41;12.00;;;6.25;;
46701;SDS011;33449;50.712;7.124;2023-01-24T06:18:09;10.95;;;6.78;;
46701;SDS011;33449;50.712;7.124;2023-01-24T06:20:39;10.65;;;7.25;;
46701;SDS011;33449;50.712;7.124;2023-01-24T06:23:07;12.60;;;7.57;;
46701;SDS011;33449;50.712;7.124;2023-01-24T06:25:36;12.40;;;6.60;;
46701;SDS011;33449;50.712;7.124;2023-01-24T06:28:05;11.82;;;7.30;;
46701;SDS011;33449;50.712;7.124;2023-01-24T06:30:32;10.60;;;6.97;;
46701;SDS011;33449;50.712;7.124;2023-01-24T06:35:38;13.20;;;7.60;;
46701;SDS011;33449;50.712;7.124;2023-01-24T06:38:14;11.40;;;7.03;;
46701;SDS011;33449;50.712;7.124;2023-01-24T06:40:42;11.98;;;6.90;;
46701;SDS011;33449;50.712;7.124;2023-01-24T06:43:09;14.68;;;7.45;;
46701;SDS011;33449;50.712;7.124;2023-01-24T06:45:36;10.60;;;6.43;;
46701;SDS011;33449;50.712;7.124;2023-01-24T06:48:05;10.77;;;7.40;;
46701;SDS011;33449;50.712;7.124;2023-01-24T06:50:32;11.48;;;6.40;;
46701;SDS011;33449;50.712;7.124;2023-01-24T06:55:45;12.10;;;6.85;;
46701;SDS011;33449;50.712;7.124;2023-01-24T06:58:13;11.85;;;6.57;;
46701;SDS011;33449;50.712;7.124;2023-01-24T07:00:40;11.88;;;6.63;;
46701;SDS011;33449;50.712;7.124;2023-01-24T07:03:07;12.68;;;7.45;;
46701;SDS011;33449;50.712;7.124;2023-01-24T07:05:35;12.77;;;7.82;;
46701;SDS011;33449;50.712;7.124;2023-01-24T07:10:47;12.40;;;7.55;;
46701;SDS011;33449;50.712;7.124;2023-01-24T07:13:15;11.02;;;6.55;;
46701;SDS011;33449;50.712;7.124;2023-01-24T07:15:42;13.55;;;6.70;;
46701;SDS011;33449;50.712;7.124;2023-01-24T07:18:12;7.23;;;4.87;;
46701;SDS011;33449;50.712;7.124;2023-01-24T07:20:39;13.95;;;6.95;;
46701;SDS011;33449;50.712;7.124;2023-01-24T07:23:18;12.10;;;7.18;;
46701;SDS011;33449;50.712;7.124;2023-01-24T07:28:40;11.25;;;7.15;;
46701;SDS011;33449;50.712;7.124;2023-01-24T07:31:09;13.00;;;6.93;;
46701;SDS011;33449;50.712;7.124;2023-01-24T07:33:37;13.27;;;7.57;;
46701;SDS011;33449;50.712;7.124;2023-01-24T07:36:11;14.35;;;7.60;;
46701;SDS011;33449;50.712;7.124;2023-01-24T07:38:39;13.68;;;7.40;;
46701;SDS011;33449;50.712;7.124;2023-01-24T07:43:39;14.93;;;7.25;;
46701;SDS011;33449;50.712;7.124;2023-01-24T07:46:07;9.38;;;6.22;;
46701;SDS011;33449;50.712;7.124;2023-01-24T07:48:34;15.65;;;6.93;;
46701;SDS011;33449;50.712;7.124;2023-01-24T07:51:02;14.18;;;6.55;;
46701;SDS011;33449;50.712;7.124;2023-01-24T07:53:30;11.15;;;6.20;;
46701;SDS011;33449;50.712;7.124;2023-01-24T07:58:28;11.43;;;6.75;;
46701;SDS011;33449;50.712;7.124;2023-01-24T08:00:55;10.25;;;6.00;;
46701;SDS011;33449;50.712;7.124;2023-01-24T08:03:23;12.73;;;6.78;;
46701;SDS011;33449;50.712;7.124;2023-01-24T08:05:50;11.82;;;6.93;;
46701;SDS011;33449;50.712;7.124;2023-01-24T08:08:17;12.73;;;7.03;;
46701;SDS011;33449;50.712;7.124;2023-01-24T08:13:22;12.75;;;6.82;;
46701;SDS011;33449;50.712;7.124;2023-01-24T08:15:49;10.30;;;6.60;;
46701;SDS011;33449;50.712;7.124;2023-01-24T08:18:20;9.98;;;6.07;;
46701;SDS011;33449;50.712;7.124;2023-01-24T08:20:47;15.75;;;7.60;;
46701;SDS011;33449;50.712;7.124;2023-01-24T08:23:15;20.50;;;10.38;;
46701;SDS011;33449;50.712;7.124;2023-01-24T08:31:19;12.50;;;6.85;;
46701;SDS011;33449;50.712;7.124;2023-01-24T08:33:47;9.35;;;5.95;;
46701;SDS011;33449;50.712;7.124;2023-01-24T08:36:14;17.13;;;6.70;;
46701;SDS011;33449;50.712;7.124;2023-01-24T08:38:41;12.23;;;7.03;;
46701;SDS011;33449;50.712;7.124;2023-01-24T08:41:09;12.25;;;6.57;;
46701;SDS011;33449;50.712;7.124;2023-01-24T08:46:18;9.45;;;5.70;;
46701;SDS011;33449;50.712;7.124;2023-01-24T08:48:47;12.10;;;7.18;;
46701;SDS011;33449;50.712;7.124;2023-01-24T08:51:24;12.25;;;6.93;;
46701;SDS011;33449;50.712;7.124;2023-01-24T08:54:17;11.63;;;7.03;;
46701;SDS011;33449;50.712;7.124;2023-01-24T08:56:45;12.90;;;6.78;;
46701;SDS011;33449;50.712;7.124;2023-01-24T08:59:22;17.02;;;7.68;;
46701;SDS011;33449;50.712;7.124;2023-01-24T09:01:49;11.77;;;6.30;;
46701;SDS011;33449;50.712;7.124;2023-01-24T09:04:16;14.05;;;7.38;;
46701;SDS011;33449;50.712;7.124;2023-01-24T09:06:46;11.85;;;6.63;;
46701;SDS011;33449;50.712;7.124;2023-01-24T09:09:14;11.07;;;6.55;;
46701;SDS011;33449;50.712;7.124;2023-01-24T09:11:41;13.75;;;7.65;;
46701;SDS011;33449;50.712;7.124;2023-01-24T09:14:10;11.93;;;7.30;;
46701;SDS011;33449;50.712;7.124;2023-01-24T09:19:12;12.98;;;6.15;;
46701;SDS011;33449;50.712;7.124;2023-01-24T09:21:39;12.90;;;7.20;;
46701;SDS011;33449;50.712;7.124;2023-01-24T09:24:06;13.20;;;6.22;;
46701;SDS011;33449;50.712;7.124;2023-01-24T09:26:34;11.30;;;6.50;;
46701;SDS011;33449;50.712;7.124;2023-01-24T09:29:01;9.13;;;5.82;;
46701;SDS011;33449;50.712;7.124;2023-01-24T09:37:07;12.13;;;6.38;;
46701;SDS011;33449;50.712;7.124;2023-01-24T09:47:32;11.52;;;7.20;;
46701;SDS011;33449;50.712;7.124;2023-01-24T09:50:03;9.65;;;5.93;;
46701;SDS011;33449;50.712;7.124;2023-01-24T09:58:12;8.93;;;5.38;;
46701;SDS011;33449;50.712;7.124;2023-01-24T10:01:10;10.85;;;6.10;;
46701;SDS011;33449;50.712;7.124;2023-01-24T10:04:08;9.90;;;5.70;;
46701;SDS011;33449;50.712;7.124;2023-01-24T10:06:37;11.95;;;6.40;;
46701;SDS011;33449;50.712;7.124;2023-01-24T10:09:20;12.77;;;6.53;;
46701;SDS011;33449;50.712;7.124;2023-01-24T10:23:08;16.02;;;7.45;;
46701;SDS011;33449;50.712;7.124;2023-01-24T10:25:50;9.50;;;6.13;;
46701;SDS011;33449;50.712;7.124;2023-01-24T10:33:26;13.82;;;7.18;;
46701;SDS011;33449;50.712;7.124;2023-01-24T10:38:57;11.55;;;6.50;;
46701;SDS011;33449;50.712;7.124;2023-01-24T10:41:25;10.65;;;7.03;;
46701;SDS011;33449;50.712;7.124;2023-01-24T10:43:54;10.68;;;6.80;;
46701;SDS011;33449;50.712;7.124;2023-01-24T10:48:50;11.98;;;6.70;;
46701;SDS011;33449;50.712;7.124;2023-01-24T10:51:20;11.95;;;6.57;;
46701;SDS011;33449;50.712;7.124;2023-01-24T10:53:48;10.90;;;6.38;;
46701;SDS011;33449;50.712;7.124;2023-01-24T10:56:17;10.13;;;6.60;;
46701;SDS011;33449;50.712;7.124;2023-01-24T10:58:55;12.57;;;7.68;;
46701;SDS011;33449;50.712;7.124;2023-01-24T11:01:23;13.82;;;7.95;;
46701;SDS011;33449;50.712;7.124;2023-01-24T11:03:51;13.70;;;8.15;;
46701;SDS011;33449;50.712;7.124;2023-01-24T11:06:25;13.80;;;7.72;;
46701;SDS011;33449;50.712;7.124;2023-01-24T11:09:01;10.82;;;6.68;;
46701;SDS011;33449;50.712;7.124;2023-01-24T11:11:29;12.05;;;7.55;;
46701;SDS011;33449;50.712;7.124;2023-01-24T11:13:58;14.13;;;8.52;;
46701;SDS011;33449;50.712;7.124;2023-01-24T11:21:49;15.20;;;9.30;;
46701;SDS011;33449;50.712;7.124;2023-01-24T11:24:17;13.43;;;8.57;;
46701;SDS011;33449;50.712;7.124;2023-01-24T11:27:01;16.77;;;9.40;;
46701;SDS011;33449;50.712;7.124;2023-01-24T11:29:29;15.13;;;9.10;;
46701;SDS011;33449;50.712;7.124;2023-01-24T11:32:02;14.70;;;8.57;;
46701;SDS011;33449;50.712;7.124;2023-01-24T11:34:39;14.73;;;8.13;;
46701;SDS011;33449;50.712;7.124;2023-01-24T11:42:37;14.27;;;8.30;;
46701;SDS011;33449;50.712;7.124;2023-01-24T11:53:31;16.92;;;9.30;;
46701;SDS011;33449;50.712;7.124;2023-01-24T11:56:05;14.57;;;7.72;;
46701;SDS011;33449;50.712;7.124;2023-01-24T12:07:21;11.60;;;7.07;;
46701;SDS011;33449;50.712;7.124;2023-01-24T12:21:37;11.77;;;7.78;;
46701;SDS011;33449;50.712;7.124;2023-01-24T12:24:37;11.95;;;7.80;;
46701;SDS011;33449;50.712;7.124;2023-01-24T12:27:06;12.80;;;7.22;;
46701;SDS011;33449;50.712;7.124;2023-01-24T12:32:23;13.70;;;8.00;;
46701;SDS011;33449;50.712;7.124;2023-01-24T12:34:54;14.30;;;7.95;;
46701;SDS011;33449;50.712;7.124;2023-01-24T12:37:44;14.70;;;8.50;;
46701;SDS011;33449;50.712;7.124;2023-01-24T12:40:17;14.65;;;8.40;;
46701;SDS011;33449;50.712;7.124;2023-01-24T12:45:38;13.77;;;8.15;;
46701;SDS011;33449;50.712;7.124;2023-01-24T12:51:20;14.10;;;8.20;;
46701;SDS011;33449;50.712;7.124;2023-01-24T12:56:23;11.15;;;7.57;;
46701;SDS011;33449;50.712;7.124;2023-01-24T12:58:52;14.07;;;8.88;;
46701;SDS011;33449;50.712;7.124;2023-01-24T13:11:45;15.63;;;8.35;;
46701;SDS011;33449;50.712;7.124;2023-01-24T13:14:32;13.65;;;8.73;;
46701;SDS011;33449;50.712;7.124;2023-01-24T13:19:35;13.88;;;7.65;;
46701;SDS011;33449;50.712;7.124;2023-01-24T13:32:26;16.27;;;8.95;;
46701;SDS011;33449;50.712;7.124;2023-01-24T13:34:54;16.50;;;8.18;;
46701;SDS011;33449;50.712;7.124;2023-01-24T13:37:36;16.77;;;9.02;;
46701;SDS011;33449;50.712;7.124;2023-01-24T13:42:56;17.27;;;10.35;;
46701;SDS011;33449;50.712;7.124;2023-01-24T14:02:39;15.20;;;8.65;;
46701;SDS011;33449;50.712;7.124;2023-01-24T14:29:41;15.20;;;8.23;;
46701;SDS011;33449;50.712;7.124;2023-01-24T14:38:38;11.90;;;7.80;;
46701;SDS011;33449;50.712;7.124;2023-01-24T14:41:21;15.15;;;8.40;;
46701;SDS011;33449;50.712;7.124;2023-01-24T14:43:50;13.02;;;8.27;;
46701;SDS011;33449;50.712;7.124;2023-01-24T14:46:20;14.63;;;8.75;;
46701;SDS011;33449;50.712;7.124;2023-01-24T14:48:49;12.95;;;7.45;;
46701;SDS011;33449;50.712;7.124;2023-01-24T14:54:15;13.60;;;8.40;;
46701;SDS011;33449;50.712;7.124;2023-01-24T14:59:45;13.90;;;8.02;;
46701;SDS011;33449;50.712;7.124;2023-01-24T15:02:16;16.52;;;9.23;;
46701;SDS011;33449;50.712;7.124;2023-01-24T15:04:44;15.35;;;8.02;;
46701;SDS011;33449;50.712;7.124;2023-01-24T15:07:12;15.38;;;8.73;;
46701;SDS011;33449;50.712;7.124;2023-01-24T15:09:40;15.07;;;8.82;;
46701;SDS011;33449;50.712;7.124;2023-01-24T15:12:24;13.70;;;8.88;;
46701;SDS011;33449;50.712;7.124;2023-01-24T15:14:52;14.90;;;9.57;;
46701;SDS011;33449;50.712;7.124;2023-01-24T15:17:21;14.60;;;9.57;;
46701;SDS011;33449;50.712;7.124;2023-01-24T15:19:53;15.67;;;9.60;;
46701;SDS011;33449;50.712;7.124;2023-01-24T15:22:25;19.27;;;10.48;;
46701;SDS011;33449;50.712;7.124;2023-01-24T15:32:46;15.00;;;8.70;;
46701;SDS011;33449;50.712;7.124;2023-01-24T15:40:29;15.65;;;9.25;;
46701;SDS011;33449;50.712;7.124;2023-01-24T15:42:56;13.52;;;9.43;;
46701;SDS011;33449;50.712;7.124;2023-01-24T15:45:45;17.45;;;9.55;;
46701;SDS011;33449;50.712;7.124;2023-01-24T15:50:56;15.88;;;9.93;;
46701;SDS011;33449;50.712;7.124;2023-01-24T15:53:41;17.23;;;9.95;;
46701;SDS011;33449;50.712;7.124;2023-01-24T15:56:14;15.68;;;9.98;;
46701;SDS011;33449;50.712;7.124;2023-01-24T15:58:42;18.10;;;9.95;;
46701;SDS011;33449;50.712;7.124;2023-01-24T16:01:09;16.83;;;9.43;;
46701;SDS011;33449;50.712;7.124;2023-01-24T16:03:37;15.93;;;9.65;;
46701;SDS011;33449;50.712;7.124;2023-01-24T16:08:39;16.67;;;9.77;;
46701;SDS011;33449;50.712;7.124;2023-01-24T16:11:06;15.57;;;9.30;;
46701;SDS011;33449;50.712;7.124;2023-01-24T16:13:34;19.15;;;10.50;;
46701;SDS011;33449;50.712;7.124;2023-01-24T16:16:07;15.50;;;9.55;;
46701;SDS011;33449;50.712;7.124;2023-01-24T16:18:35;20.40;;;11.30;;
46701;SDS011;33449;50.712;7.124;2023-01-24T16:23:43;20.75;;;10.80;;
46701;SDS011;33449;50.712;7.124;2023-01-24T16:26:16;15.98;;;10.18;;
46701;SDS011;33449;50.712;7.124;2023-01-24T16:28:47;16.63;;;9.63;;
46701;SDS011;33449;50.712;7.124;2023-01-24T16:31:14;15.65;;;9.75;;
46701;SDS011;33449;50.712;7.124;2023-01-24T16:33:41;17.83;;;11.00;;
46701;SDS011;33449;50.712;7.124;2023-01-24T16:36:12;19.70;;;10.88;;
46701;SDS011;33449;50.712;7.124;2023-01-24T16:38:40;18.40;;;10.15;;
46701;SDS011;33449;50.712;7.124;2023-01-24T16:41:07;20.50;;;10.55;;
46701;SDS011;33449;50.712;7.124;2023-01-24T16:43:34;19.48;;;10.73;;
46701;SDS011;33449;50.712;7.124;2023-01-24T16:46:01;20.60;;;11.57;;
46701;SDS011;33449;50.712;7.124;2023-01-24T16:48:29;20.95;;;11.52;;
46701;SDS011;33449;50.712;7.124;2023-01-24T16:53:31;18.20;;;10.70;;
46701;SDS011;33449;50.712;7.124;2023-01-24T16:55:58;20.20;;;10.93;;
46701;SDS011;33449;50.712;7.124;2023-01-24T16:58:32;20.13;;;11.02;;
46701;SDS011;33449;50.712;7.124;2023-01-24T17:01:05;21.98;;;12.38;;
46701;SDS011;33449;50.712;7.124;2023-01-24T17:03:33;17.10;;;10.85;;
46701;SDS011;33449;50.712;7.124;2023-01-24T17:06:09;18.58;;;10.38;;
46701;SDS011;33449;50.712;7.124;2023-01-24T17:08:36;19.20;;;11.63;;
46701;SDS011;33449;50.712;7.124;2023-01-24T17:11:04;22.52;;;11.50;;
46701;SDS011;33449;50.712;7.124;2023-01-24T17:13:31;19.98;;;11.02;;
46701;SDS011;33449;50.712;7.124;2023-01-24T17:16:02;22.92;;;12.23;;
46701;SDS011;33449;50.712;7.124;2023-01-24T17:18:31;20.63;;;11.38;;
46701;SDS011;33449;50.712;7.124;2023-01-24T17:23:32;23.38;;;13.48;;
46701;SDS011;33449;50.712;7.124;2023-01-24T17:26:05;20.25;;;12.50;;
46701;SDS011;33449;50.712;7.124;2023-01-24T17:28:35;21.73;;;11.82;;
46701;SDS011;33449;50.712;7.124;2023-01-24T17:33:35;21.15;;;12.43;;
46701;SDS011;33449;50.712;7.124;2023-01-24T17:36:02;20.85;;;11.95;;
46701;SDS011;33449;50.712;7.124;2023-01-24T17:38:30;21.98;;;12.13;;
46701;SDS011;33449;50.712;7.124;2023-01-24T17:40:57;26.45;;;12.40;;
46701;SDS011;33449;50.712;7.124;2023-01-24T17:43:24;20.98;;;12.05;;
46701;SDS011;33449;50.712;7.124;2023-01-24T17:45:52;19.17;;;11.50;;
46701;SDS011;33449;50.712;7.124;2023-01-24T17:48:27;21.35;;;12.05;;
46701;SDS011;33449;50.712;7.124;2023-01-24T17:50:55;21.48;;;12.27;;
46701;SDS011;33449;50.712;7.124;2023-01-24T17:53:22;21.95;;;12.30;;
46701;SDS011;33449;50.712;7.124;2023-01-24T17:55:53;23.05;;;12.55;;
46701;SDS011;33449;50.712;7.124;2023-01-24T17:58:21;21.25;;;12.20;;
46701;SDS011;33449;50.712;7.124;2023-01-24T18:00:51;23.83;;;12.85;;
46701;SDS011;33449;50.712;7.124;2023-01-24T18:03:18;25.58;;;13.85;;
46701;SDS011;33449;50.712;7.124;2023-01-24T18:08:15;24.75;;;14.10;;
46701;SDS011;33449;50.712;7.124;2023-01-24T18:10:42;27.08;;;14.63;;
46701;SDS011;33449;50.712;7.124;2023-01-24T18:13:09;24.00;;;12.65;;
46701;SDS011;33449;50.712;7.124;2023-01-24T18:15:36;24.60;;;13.15;;
46701;SDS011;33449;50.712;7.124;2023-01-24T18:18:04;25.92;;;13.45;;
46701;SDS011;33449;50.712;7.124;2023-01-24T18:23:15;23.98;;;13.80;;
46701;SDS011;33449;50.712;7.124;2023-01-24T18:25:42;22.63;;;13.23;;
46701;SDS011;33449;50.712;7.124;2023-01-24T18:28:09;23.17;;;13.80;;
46701;SDS011;33449;50.712;7.124;2023-01-24T18:30:37;26.80;;;15.35;;
46701;SDS011;33449;50.712;7.124;2023-01-24T18:33:04;24.33;;;13.55;;
46701;SDS011;33449;50.712;7.124;2023-01-24T18:38:17;26.63;;;15.23;;
46701;SDS011;33449;50.712;7.124;2023-01-24T18:40:44;21.10;;;11.73;;
46701;SDS011;33449;50.712;7.124;2023-01-24T18:43:11;23.52;;;13.52;;
46701;SDS011;33449;50.712;7.124;2023-01-24T18:45:39;24.33;;;12.43;;
46701;SDS011;33449;50.712;7.124;2023-01-24T18:48:06;26.75;;;14.95;;
46701;SDS011;33449;50.712;7.124;2023-01-24T18:55:33;23.13;;;11.25;;
46701;SDS011;33449;50.712;7.124;2023-01-24T18:58:02;25.15;;;13.77;;
46701;SDS011;33449;50.712;7.124;2023-01-24T19:00:29;23.20;;;13.57;;
46701;SDS011;33449;50.712;7.124;2023-01-24T19:02:58;24.95;;;13.88;;
46701;SDS011;33449;50.712;7.124;2023-01-24T19:08:01;26.95;;;13.68;;
46701;SDS011;33449;50.712;7.124;2023-01-24T19:10:28;27.25;;;14.23;;
46701;SDS011;33449;50.712;7.124;2023-01-24T19:12:55;29.50;;;14.65;;
46701;SDS011;33449;50.712;7.124;2023-01-24T19:15:22;24.42;;;13.73;;
46701;SDS011;33449;50.712;7.124;2023-01-24T19:23:01;28.23;;;14.80;;
46701;SDS011;33449;50.712;7.124;2023-01-24T19:25:29;28.25;;;14.55;;
46701;SDS011;33449;50.712;7.124;2023-01-24T19:27:56;28.95;;;14.98;;
46701;SDS011;33449;50.712;7.124;2023-01-24T19:30:23;25.80;;;14.00;;
46701;SDS011;33449;50.712;7.124;2023-01-24T19:32:50;21.75;;;13.43;;
46701;SDS011;33449;50.712;7.124;2023-01-24T19:38:03;24.90;;;12.95;;
46701;SDS011;33449;50.712;7.124;2023-01-24T19:40:30;24.65;;;12.73;;
46701;SDS011;33449;50.712;7.124;2023-01-24T19:42:57;25.40;;;12.80;;
46701;SDS011;33449;50.712;7.124;2023-01-24T19:45:25;22.52;;;12.38;;
46701;SDS011;33449;50.712;7.124;2023-01-24T19:47:52;23.42;;;13.13;;
46701;SDS011;33449;50.712;7.124;2023-01-24T19:50:20;24.15;;;11.15;;
46701;SDS011;33449;50.712;7.124;2023-01-24T19:52:47;21.77;;;12.63;;
46701;SDS011;33449;50.712;7.124;2023-01-24T19:55:15;27.00;;;13.90;;
46701;SDS011;33449;50.712;7.124;2023-01-24T19:57:42;24.73;;;12.15;;
46701;SDS011;33449;50.712;7.124;2023-01-24T20:00:09;24.98;;;13.18;;
46701;SDS011;33449;50.712;7.124;2023-01-24T20:02:36;23.83;;;12.40;;
46701;SDS011;33449;50.712;7.124;2023-01-24T20:07:39;22.58;;;12.73;;